createdAt,value
2022-11-15T00:00:39.649Z,11.25
2022-11-15T00:04:02.043Z,11.27
2022-11-15T00:07:53.391Z,11.30
2022-11-15T00:11:07.049Z,10.50
2022-11-15T00:14:31.004Z,11.35
2022-11-15T00:17:53.430Z,11.70
2022-11-15T00:21:16.441Z,10.77
2022-11-15T00:24:39.017Z,11.30
2022-11-15T00:28:02.376Z,10.90
2022-11-15T00:31:26.676Z,11.40
2022-11-15T00:34:48.876Z,12.57
2022-11-15T00:38:11.018Z,12.30
2022-11-15T00:41:33.504Z,12.48
2022-11-15T00:44:56.029Z,13.13
2022-11-15T00:48:20.487Z,12.35
2022-11-15T00:51:42.596Z,12.50
2022-11-15T00:55:05.007Z,12.80
2022-11-15T00:58:27.419Z,12.32
2022-11-15T01:01:49.451Z,12.52
2022-11-15T01:05:14.020Z,12.43
2022-11-15T01:11:58.818Z,12.70
2022-11-15T01:15:21.173Z,13.27
2022-11-15T01:18:43.938Z,13.32
2022-11-15T01:22:08.018Z,14.13
2022-11-15T01:28:53.272Z,12.85
2022-11-15T01:32:16.006Z,13.73
2022-11-15T01:35:42.104Z,13.00
2022-11-15T01:39:06.571Z,14.43
2022-11-15T01:45:55.875Z,12.98
2022-11-15T01:49:20.845Z,12.75
2022-11-15T01:52:43.443Z,13.90
2022-11-15T01:56:11.853Z,13.57
2022-11-15T01:59:34.973Z,13.68
2022-11-15T02:02:57.775Z,13.00
2022-11-15T02:06:20.783Z,13.93
2022-11-15T02:09:43.095Z,14.05
2022-11-15T02:13:07.200Z,13.10
2022-11-15T02:16:38.070Z,13.05
2022-11-15T02:20:36.431Z,15.10
2022-11-15T02:24:36.115Z,13.25
2022-11-15T02:28:30.497Z,13.10
2022-11-15T02:32:02.398Z,13.38
2022-11-15T02:35:37.150Z,15.20
2022-11-15T02:46:09.023Z,14.63
2022-11-15T02:49:36.173Z,14.02
2022-11-15T02:52:58.763Z,17.42
2022-11-15T02:56:21.323Z,14.93
2022-11-15T02:59:56.788Z,16.00
2022-11-15T03:03:34.765Z,15.98
2022-11-15T03:07:07.986Z,15.30
2022-11-15T03:10:42.834Z,15.38
2022-11-15T03:14:13.289Z,14.13
2022-11-15T03:17:38.598Z,14.98
2022-11-15T03:21:02.337Z,14.85
2022-11-15T03:24:29.417Z,13.95
2022-11-15T03:27:56.828Z,14.63
2022-11-15T03:31:34.937Z,15.43
2022-11-15T03:35:01.029Z,14.25
2022-11-15T03:38:27.094Z,13.27
2022-11-15T03:41:59.914Z,15.38
2022-11-15T03:45:28.125Z,14.38
2022-11-15T03:48:54.589Z,14.25
2022-11-15T03:52:21.046Z,14.07
2022-11-15T03:55:43.464Z,14.45
2022-11-15T03:59:08.372Z,14.88
2022-11-15T04:02:30.648Z,13.40
2022-11-15T04:05:52.698Z,13.80
2022-11-15T04:09:15.170Z,13.20
2022-11-15T04:12:41.029Z,12.90
2022-11-15T04:16:06.409Z,12.48
2022-11-15T04:19:41.610Z,13.35
2022-11-15T04:23:19.137Z,12.27
2022-11-15T04:26:41.426Z,12.73
2022-11-15T04:30:03.742Z,12.25
2022-11-15T04:33:27.915Z,13.07
2022-11-15T04:37:03.185Z,12.13
2022-11-15T04:40:25.444Z,12.10
2022-11-15T04:43:47.534Z,12.80
2022-11-15T04:47:09.630Z,11.60
2022-11-15T04:50:33.799Z,12.70
2022-11-15T04:53:56.115Z,13.13
2022-11-15T04:57:18.189Z,11.80
2022-11-15T05:00:40.304Z,11.90
2022-11-15T05:04:16.210Z,11.88
2022-11-15T05:07:40.571Z,10.95
2022-11-15T05:11:02.742Z,11.45
2022-11-15T05:14:24.988Z,12.00
2022-11-15T05:17:47.587Z,11.75
2022-11-15T05:21:12.427Z,12.32
2022-11-15T05:24:36.690Z,12.32
2022-11-15T05:27:59.280Z,10.80
2022-11-15T05:31:21.231Z,12.02
2022-11-15T05:34:43.870Z,11.20
2022-11-15T05:38:06.517Z,11.77
2022-11-15T05:41:35.013Z,12.05
2022-11-15T05:44:57.121Z,11.85
2022-11-15T05:48:19.891Z,11.82
2022-11-15T05:51:43.284Z,11.82
2022-11-15T05:55:07.752Z,9.15
2022-11-15T05:58:33.834Z,10.98
2022-11-15T06:01:56.100Z,10.63
2022-11-15T06:05:18.292Z,10.82
2022-11-15T06:08:40.491Z,10.68
2022-11-15T06:12:02.565Z,10.90
2022-11-15T06:15:26.532Z,10.60
2022-11-15T06:18:48.925Z,11.38
2022-11-15T06:22:11.214Z,10.80
2022-11-15T06:25:33.634Z,10.43
2022-11-15T06:28:55.968Z,11.45
2022-11-15T06:32:20.509Z,11.15
2022-11-15T06:39:05.528Z,11.65
2022-11-15T06:42:27.899Z,10.43
2022-11-15T06:45:50.029Z,10.30
2022-11-15T06:49:14.750Z,10.98
2022-11-15T06:52:37.146Z,10.57
2022-11-15T06:56:02.995Z,11.77
2022-11-15T06:59:25.350Z,10.45
2022-11-15T07:02:47.600Z,10.75
2022-11-15T07:06:12.786Z,10.80
2022-11-15T07:09:35.386Z,9.27
2022-11-15T07:12:58.787Z,9.10
2022-11-15T07:16:21.179Z,10.52
2022-11-15T07:19:43.285Z,10.48
2022-11-15T07:23:08.436Z,11.00
2022-11-15T07:26:30.749Z,10.85
2022-11-15T07:29:53.029Z,10.82
2022-11-15T07:33:15.326Z,10.18
2022-11-15T07:36:37.732Z,10.05
2022-11-15T07:40:01.923Z,10.23
2022-11-15T07:43:24.385Z,9.50
2022-11-15T07:46:46.652Z,9.93
2022-11-15T07:50:09.979Z,9.43
2022-11-15T07:53:32.642Z,9.45
2022-11-15T07:56:59.198Z,11.05
2022-11-15T08:00:23.402Z,9.82
2022-11-15T08:03:45.858Z,9.98
2022-11-15T08:07:08.139Z,11.00
2022-11-15T08:10:30.927Z,11.10
2022-11-15T08:13:55.278Z,10.15
2022-11-15T08:17:17.517Z,9.70
2022-11-15T08:20:39.860Z,12.23
2022-11-15T08:24:02.088Z,11.32
2022-11-15T08:27:24.151Z,10.05
2022-11-15T08:30:48.393Z,11.50
2022-11-15T08:34:10.652Z,12.55
2022-11-15T08:37:33.017Z,11.32
2022-11-15T08:41:01.115Z,12.05
2022-11-15T08:44:24.372Z,12.50
2022-11-15T08:47:53.922Z,11.60
2022-11-15T08:51:17.196Z,12.57
2022-11-15T08:54:39.696Z,11.80
2022-11-15T08:58:02.234Z,11.30
2022-11-15T09:01:25.128Z,10.93
2022-11-15T09:04:49.626Z,10.80
2022-11-15T09:08:32.847Z,9.90
2022-11-15T09:12:01.052Z,9.80
2022-11-15T09:15:24.532Z,8.63
2022-11-15T09:18:46.796Z,8.95
2022-11-15T09:22:11.132Z,7.82
2022-11-15T09:25:34.246Z,7.45
2022-11-15T09:28:56.815Z,7.38
2022-11-15T09:32:18.905Z,6.95
2022-11-15T09:35:41.503Z,6.60
2022-11-15T09:39:05.972Z,6.80
2022-11-15T09:42:38.413Z,6.78
2022-11-15T09:46:09.798Z,7.28
2022-11-15T09:49:56.718Z,4.97
2022-11-15T09:53:11.331Z,5.03
2022-11-15T09:56:20.997Z,5.95
2022-11-15T09:59:49.101Z,5.43
2022-11-15T10:03:15.587Z,6.80
2022-11-15T10:06:27.566Z,5.78
2022-11-15T10:09:36.417Z,6.10
2022-11-15T10:12:46.453Z,5.18
2022-11-15T10:15:50.788Z,5.32
2022-11-15T10:19:03.512Z,5.03
2022-11-15T10:22:30.943Z,4.78
2022-11-15T10:25:36.076Z,3.90
2022-11-15T10:28:41.744Z,4.05
2022-11-15T10:31:45.451Z,3.92
2022-11-15T10:34:50.664Z,4.35
2022-11-15T10:37:54.568Z,3.83
2022-11-15T10:41:10.213Z,2.97
2022-11-15T10:44:26.020Z,4.30
2022-11-15T10:47:36.028Z,3.70
2022-11-15T10:50:44.433Z,4.10
2022-11-15T10:53:49.046Z,7.07
2022-11-15T10:56:55.918Z,4.18
2022-11-15T11:00:03.985Z,3.40
2022-11-15T11:03:29.087Z,3.70
2022-11-15T11:06:49.172Z,3.72
2022-11-15T11:10:00.967Z,3.65
2022-11-15T11:13:23.715Z,3.25
2022-11-15T11:16:47.729Z,2.47
2022-11-15T11:20:01.736Z,2.67
2022-11-15T11:26:41.270Z,2.17
2022-11-15T11:30:01.345Z,2.65
2022-11-15T11:33:14.446Z,2.15
2022-11-15T11:36:27.567Z,1.50
2022-11-15T11:39:44.678Z,2.10
2022-11-15T11:42:59.271Z,1.77
2022-11-15T11:46:16.118Z,1.67
2022-11-15T11:49:27.291Z,1.40
2022-11-15T11:52:35.551Z,1.80
2022-11-15T11:55:45.282Z,1.27
2022-11-15T11:58:50.463Z,1.60
2022-11-15T12:01:54.587Z,1.58
2022-11-15T12:05:06.573Z,1.48
2022-11-15T12:08:28.207Z,1.40
2022-11-15T12:11:41.160Z,1.42
2022-11-15T12:14:48.156Z,1.52
2022-11-15T12:17:52.501Z,1.80
2022-11-15T12:20:59.905Z,1.77
2022-11-15T12:24:08.008Z,2.25
2022-11-15T12:27:26.106Z,2.58
2022-11-15T12:30:44.582Z,3.13
2022-11-15T12:33:50.268Z,3.05
2022-11-15T12:36:54.332Z,2.40
2022-11-15T12:40:25.158Z,3.28
2022-11-15T12:43:46.198Z,3.20
2022-11-15T12:47:06.124Z,3.17
2022-11-15T12:50:15.536Z,3.25
2022-11-15T12:53:33.243Z,3.42
2022-11-15T12:56:36.949Z,3.20
2022-11-15T12:59:58.194Z,3.60
2022-11-15T13:03:23.850Z,3.80
2022-11-15T13:06:45.357Z,3.67
2022-11-15T13:09:57.766Z,3.45
2022-11-15T13:13:03.285Z,3.40
2022-11-15T13:16:09.940Z,3.13
2022-11-15T13:19:13.881Z,3.53
2022-11-15T13:26:10.650Z,3.40
2022-11-15T13:29:22.067Z,3.72
2022-11-15T13:32:27.875Z,3.38
2022-11-15T13:35:36.397Z,3.50
2022-11-15T13:38:42.545Z,3.05
2022-11-15T13:41:50.912Z,3.58
2022-11-15T13:44:59.130Z,2.40
2022-11-15T13:48:06.814Z,2.45
2022-11-15T13:51:19.535Z,2.08
2022-11-15T13:54:29.311Z,2.05
2022-11-15T13:57:40.100Z,2.08
2022-11-15T14:00:45.762Z,2.85
2022-11-15T14:03:54.718Z,2.05
2022-11-15T14:07:00.370Z,2.85
2022-11-15T14:10:29.885Z,1.52
2022-11-15T14:13:34.780Z,1.30
2022-11-15T14:16:40.339Z,1.20
2022-11-15T14:19:45.943Z,1.50
2022-11-15T14:22:57.089Z,1.45
2022-11-15T14:26:01.660Z,1.40
2022-11-15T14:29:27.256Z,1.30
2022-11-15T14:32:39.448Z,1.20
2022-11-15T14:35:45.341Z,1.63
2022-11-15T14:38:50.292Z,3.08
2022-11-15T14:41:54.041Z,3.10
2022-11-15T14:44:57.767Z,1.30
2022-11-15T14:48:01.436Z,1.20
2022-11-15T14:51:14.658Z,1.30
2022-11-15T14:54:19.442Z,1.30
2022-11-15T14:57:23.268Z,1.20
2022-11-15T15:00:32.358Z,1.23
2022-11-15T15:03:38.714Z,1.23
2022-11-15T15:06:44.396Z,1.10
2022-11-15T15:09:48.614Z,1.38
2022-11-15T15:12:52.593Z,0.93
2022-11-15T15:18:59.801Z,1.20
2022-11-15T15:22:06.136Z,1.95
2022-11-15T15:25:24.223Z,1.20
2022-11-15T15:28:33.119Z,1.15
2022-11-15T15:31:38.446Z,1.35
2022-11-15T15:34:42.133Z,1.60
2022-11-15T15:37:49.133Z,1.88
2022-11-15T15:40:52.819Z,1.10
2022-11-15T15:43:56.725Z,1.40
2022-11-15T15:47:00.395Z,1.55
2022-11-15T15:50:04.756Z,1.40
2022-11-15T15:53:10.766Z,1.73
2022-11-15T15:56:14.760Z,1.48
2022-11-15T16:02:22.149Z,1.10
2022-11-15T16:05:25.945Z,1.42
2022-11-15T16:08:47.474Z,1.77
2022-11-15T16:11:51.586Z,1.30
2022-11-15T16:14:55.543Z,1.83
2022-11-15T16:18:01.414Z,1.70
2022-11-15T16:21:05.219Z,1.40
2022-11-15T16:24:10.915Z,1.33
2022-11-15T16:27:17.520Z,1.77
2022-11-15T16:30:23.443Z,1.38
2022-11-15T16:33:27.157Z,1.38
2022-11-15T16:36:35.029Z,1.38
2022-11-15T16:39:40.919Z,1.50
2022-11-15T16:42:44.631Z,1.42
2022-11-15T16:45:48.569Z,1.58
2022-11-15T16:55:02.316Z,1.13
2022-11-15T16:58:06.060Z,1.20
2022-11-15T17:01:20.373Z,1.38
2022-11-15T17:04:24.192Z,1.23
2022-11-15T17:07:27.932Z,1.50
2022-11-15T17:10:33.670Z,3.83
2022-11-15T17:13:37.372Z,4.88
2022-11-15T17:16:41.922Z,2.08
2022-11-15T17:19:45.813Z,1.63
2022-11-15T17:26:17.846Z,1.73
2022-11-15T17:29:27.588Z,1.48
2022-11-15T17:32:31.220Z,1.55
2022-11-15T17:35:34.880Z,1.58
2022-11-15T17:38:38.649Z,1.42
2022-11-15T17:41:44.311Z,1.58
2022-11-15T17:44:48.110Z,1.70
2022-11-15T17:47:53.121Z,2.10
2022-11-15T17:50:58.646Z,2.03
2022-11-15T17:54:06.292Z,1.92
2022-11-15T17:57:12.304Z,1.83
2022-11-15T18:00:19.006Z,1.52
2022-11-15T18:03:23.005Z,1.50
2022-11-15T18:09:30.608Z,1.00
2022-11-15T18:15:40.629Z,2.08
2022-11-15T18:21:58.330Z,1.48
2022-11-15T18:25:02.666Z,1.67
2022-11-15T18:28:08.448Z,1.75
2022-11-15T18:31:16.718Z,1.40
2022-11-15T18:34:20.866Z,1.48
2022-11-15T18:37:24.771Z,2.00
2022-11-15T18:40:28.664Z,1.77
2022-11-15T18:43:34.787Z,1.42
2022-11-15T18:46:39.403Z,1.75
2022-11-15T18:49:43.122Z,1.85
2022-11-15T18:52:46.837Z,2.00
2022-11-15T18:55:51.014Z,1.67
2022-11-15T18:58:58.598Z,1.70
2022-11-15T19:02:02.240Z,1.48
2022-11-15T19:05:06.540Z,2.10
2022-11-15T19:08:10.279Z,2.28
2022-11-15T19:11:17.052Z,1.90
2022-11-15T19:14:24.665Z,1.83
2022-11-15T19:17:28.596Z,1.60
2022-11-15T19:23:36.380Z,1.58
2022-11-15T19:26:41.121Z,1.80
2022-11-15T19:29:48.705Z,1.90
2022-11-15T19:32:54.674Z,1.80
2022-11-15T19:36:02.057Z,2.15
2022-11-15T19:39:09.191Z,1.83
2022-11-15T19:42:12.934Z,1.90
2022-11-15T19:45:18.570Z,1.80
2022-11-15T19:48:22.488Z,1.60
2022-11-15T19:51:28.638Z,1.90
2022-11-15T19:54:32.481Z,1.75
2022-11-15T19:57:36.156Z,2.35
2022-11-15T20:00:42.094Z,1.52
2022-11-15T20:03:46.820Z,1.60
2022-11-15T20:06:50.555Z,1.70
2022-11-15T20:09:54.372Z,2.03
2022-11-15T20:12:58.072Z,2.03
2022-11-15T20:16:04.274Z,1.77
2022-11-15T20:19:08.733Z,2.25
2022-11-15T20:22:12.449Z,2.10
2022-11-15T20:25:16.831Z,1.75
2022-11-15T20:28:22.605Z,3.30
2022-11-15T20:31:28.701Z,1.98
2022-11-15T20:34:32.358Z,2.05
2022-11-15T20:37:36.820Z,2.35
2022-11-15T20:40:41.079Z,2.08
2022-11-15T20:43:44.785Z,1.85
2022-11-15T20:46:50.886Z,2.35
2022-11-15T20:49:55.268Z,2.42
2022-11-15T20:52:59.364Z,2.42
2022-11-15T20:56:08.713Z,2.20
2022-11-15T20:59:12.407Z,2.53
2022-11-15T21:02:18.145Z,2.42
2022-11-15T21:05:21.874Z,2.80
2022-11-15T21:08:25.622Z,2.75
2022-11-15T21:11:54.229Z,2.38
2022-11-15T21:14:57.885Z,2.50
2022-11-15T21:18:03.489Z,3.33
2022-11-15T21:21:07.740Z,2.45
2022-11-15T21:24:12.294Z,3.40
2022-11-15T21:27:18.380Z,3.08
2022-11-15T21:30:22.362Z,2.40
2022-11-15T21:36:32.904Z,2.53
2022-11-15T21:39:36.559Z,3.50
2022-11-15T21:42:40.748Z,3.03
2022-11-15T21:45:44.874Z,2.90
2022-11-15T21:48:50.649Z,2.60
2022-11-15T21:51:54.349Z,3.15
2022-11-15T21:54:58.759Z,2.88
2022-11-15T21:58:02.442Z,3.17
2022-11-15T22:01:20.132Z,2.90
2022-11-15T22:04:25.782Z,3.42
2022-11-15T22:07:29.532Z,3.67
2022-11-15T22:10:33.242Z,2.90
2022-11-15T22:13:37.291Z,3.08
2022-11-15T22:16:41.033Z,3.08
2022-11-15T22:19:52.578Z,3.10
2022-11-15T22:22:56.841Z,2.90
2022-11-15T22:26:01.721Z,2.85
2022-11-15T22:29:05.458Z,2.92
2022-11-15T22:32:09.089Z,3.15
2022-11-15T22:35:15.362Z,2.90
2022-11-15T22:38:19.382Z,3.00
2022-11-15T22:44:26.759Z,2.70
2022-11-15T22:47:30.429Z,3.15
2022-11-15T22:50:36.024Z,3.53
2022-11-15T22:53:39.676Z,3.35
2022-11-15T22:56:43.373Z,3.13
2022-11-15T22:59:47.049Z,3.80
2022-11-15T23:02:54.274Z,3.72
2022-11-15T23:06:05.187Z,3.65
2022-11-15T23:09:09.759Z,3.88
2022-11-15T23:12:26.782Z,3.75
2022-11-15T23:15:50.541Z,4.30
2022-11-15T23:18:56.516Z,2.85
2022-11-15T23:22:15.273Z,3.58
2022-11-15T23:25:18.923Z,3.47
2022-11-15T23:28:22.628Z,3.75
2022-11-15T23:31:39.550Z,4.10
2022-11-15T23:34:45.031Z,3.40
2022-11-15T23:37:50.607Z,4.00
2022-11-15T23:40:54.566Z,3.53
2022-11-15T23:47:01.615Z,3.70
2022-11-15T23:50:05.991Z,4.47
2022-11-15T23:53:11.639Z,3.80
2022-11-15T23:56:17.155Z,4.10
2022-11-15T23:59:20.814Z,3.70
